createdAt,value
2022-09-07T00:01:13.143Z,9.95
2022-09-07T00:03:41.883Z,11.05
2022-09-07T00:06:11.232Z,9.93
2022-09-07T00:08:40.349Z,16.47
2022-09-07T00:11:13.176Z,10.48
2022-09-07T00:13:42.756Z,12.00
2022-09-07T00:16:17.905Z,10.18
2022-09-07T00:18:46.654Z,11.77
2022-09-07T00:21:17.085Z,13.80
2022-09-07T00:23:45.760Z,16.20
2022-09-07T00:26:23.025Z,12.20
2022-09-07T00:28:51.815Z,12.75
2022-09-07T00:31:23.422Z,11.88
2022-09-07T00:33:53.787Z,12.43
2022-09-07T00:36:22.985Z,12.35
2022-09-07T00:38:51.000Z,12.85
2022-09-07T00:41:20.925Z,11.80
2022-09-07T00:43:53.019Z,13.73
2022-09-07T00:46:30.528Z,14.07
2022-09-07T00:49:13.279Z,11.82
2022-09-07T00:51:55.315Z,11.50
2022-09-07T00:54:28.316Z,16.08
2022-09-07T00:56:56.798Z,10.82
2022-09-07T00:59:39.704Z,11.73
2022-09-07T01:02:08.885Z,12.77
2022-09-07T01:04:37.723Z,11.05
2022-09-07T01:07:06.185Z,14.90
2022-09-07T01:09:34.343Z,13.25
2022-09-07T01:12:03.753Z,13.43
2022-09-07T01:14:35.122Z,12.82
2022-09-07T01:21:33.619Z,14.07
2022-09-07T01:24:17.351Z,14.70
2022-09-07T01:27:12.339Z,12.80
2022-09-07T01:29:59.631Z,13.85
2022-09-07T01:32:53.589Z,12.30
2022-09-07T01:35:49.398Z,13.65
2022-09-07T01:38:32.119Z,12.02
2022-09-07T01:41:06.767Z,11.57
2022-09-07T01:43:43.886Z,14.02
2022-09-07T01:46:52.341Z,11.35
2022-09-07T01:49:46.483Z,12.90
2022-09-07T01:52:21.759Z,11.32
2022-09-07T01:55:00.494Z,13.93
2022-09-07T01:57:38.664Z,13.75
2022-09-07T02:00:11.218Z,11.82
2022-09-07T02:02:54.949Z,14.05
2022-09-07T02:05:36.938Z,12.50
2022-09-07T02:08:19.787Z,11.83
2022-09-07T02:10:52.684Z,12.88
2022-09-07T02:13:39.141Z,13.65
2022-09-07T02:16:13.404Z,13.95
2022-09-07T02:18:47.268Z,15.20
2022-09-07T02:21:21.455Z,14.10
2022-09-07T02:23:55.451Z,13.93
2022-09-07T02:26:25.871Z,13.95
2022-09-07T02:28:54.166Z,19.58
2022-09-07T02:31:22.044Z,13.18
2022-09-07T02:33:50.291Z,14.67
2022-09-07T02:36:22.400Z,12.98
2022-09-07T02:38:50.509Z,13.10
2022-09-07T02:41:39.376Z,13.63
2022-09-07T02:44:17.843Z,15.50
2022-09-07T02:47:06.391Z,17.70
2022-09-07T02:50:10.401Z,15.30
2022-09-07T02:53:00.657Z,13.38
2022-09-07T02:55:49.588Z,15.05
2022-09-07T02:58:48.761Z,15.23
2022-09-07T03:01:40.623Z,18.20
2022-09-07T03:04:19.090Z,14.35
2022-09-07T03:07:06.748Z,15.88
2022-09-07T03:09:41.191Z,15.85
2022-09-07T03:12:10.103Z,13.88
2022-09-07T03:14:43.855Z,14.70
2022-09-07T03:17:12.626Z,13.82
2022-09-07T03:19:40.426Z,14.10
2022-09-07T03:22:09.114Z,14.32
2022-09-07T03:24:37.341Z,13.95
2022-09-07T03:27:05.364Z,11.57
2022-09-07T03:29:33.139Z,14.02
2022-09-07T03:32:01.259Z,13.45
2022-09-07T03:34:29.012Z,15.30
2022-09-07T03:36:57.756Z,15.20
2022-09-07T03:39:26.878Z,15.57
2022-09-07T03:41:54.779Z,15.50
2022-09-07T03:44:22.654Z,14.10
2022-09-07T03:46:50.874Z,16.13
2022-09-07T03:49:19.414Z,18.60
2022-09-07T03:51:47.738Z,13.30
2022-09-07T03:54:15.746Z,15.50
2022-09-07T03:56:43.894Z,14.20
2022-09-07T03:59:11.659Z,15.85
2022-09-07T04:01:40.423Z,17.27
2022-09-07T04:04:09.566Z,20.23
2022-09-07T04:06:37.974Z,17.40
2022-09-07T04:09:09.002Z,14.80
2022-09-07T04:11:36.972Z,15.32
2022-09-07T04:14:04.959Z,12.52
2022-09-07T04:16:33.933Z,15.23
2022-09-07T04:19:02.020Z,16.70
2022-09-07T04:21:31.673Z,15.18
2022-09-07T04:24:00.340Z,19.90
2022-09-07T04:26:30.950Z,16.77
2022-09-07T04:29:01.384Z,15.10
2022-09-07T04:31:29.589Z,16.35
2022-09-07T04:33:57.592Z,19.33
2022-09-07T04:36:25.549Z,18.15
2022-09-07T04:38:58.359Z,18.52
2022-09-07T04:41:28.177Z,16.13
2022-09-07T04:44:01.668Z,19.02
2022-09-07T04:46:34.894Z,19.02
2022-09-07T04:49:11.035Z,15.13
2022-09-07T04:51:40.186Z,17.48
2022-09-07T04:54:08.480Z,14.70
2022-09-07T04:56:36.532Z,17.88
2022-09-07T04:59:05.002Z,18.00
2022-09-07T05:01:33.380Z,14.57
2022-09-07T05:04:02.858Z,15.55
2022-09-07T05:06:30.968Z,16.43
2022-09-07T05:08:59.499Z,15.43
2022-09-07T05:11:29.864Z,17.80
2022-09-07T05:13:59.862Z,10.93
2022-09-07T05:16:29.203Z,11.10
2022-09-07T05:19:00.076Z,14.83
2022-09-07T05:21:30.444Z,13.55
2022-09-07T05:24:00.219Z,17.52
2022-09-07T05:26:30.889Z,11.60
2022-09-07T05:31:51.128Z,9.60
2022-09-07T05:34:34.536Z,14.73
2022-09-07T05:37:02.749Z,11.77
2022-09-07T05:39:32.398Z,13.05
2022-09-07T05:42:00.264Z,14.38
2022-09-07T05:44:44.411Z,13.60
2022-09-07T05:47:13.447Z,12.43
2022-09-07T05:49:41.510Z,10.90
2022-09-07T05:52:09.870Z,16.90
2022-09-07T05:54:38.265Z,12.35
2022-09-07T05:57:07.583Z,9.00
2022-09-07T05:59:35.775Z,14.40
2022-09-07T06:02:04.106Z,10.30
2022-09-07T06:04:32.999Z,11.80
2022-09-07T06:12:37.397Z,9.13
2022-09-07T06:15:06.285Z,9.27
2022-09-07T06:17:34.274Z,11.10
2022-09-07T06:20:02.377Z,7.65
2022-09-07T06:22:31.316Z,9.10
2022-09-07T06:24:59.559Z,14.25
2022-09-07T06:27:27.743Z,14.15
2022-09-07T06:29:56.144Z,17.45
2022-09-07T06:35:13.575Z,11.03
2022-09-07T06:37:41.905Z,8.98
2022-09-07T06:40:11.242Z,10.65
2022-09-07T06:42:39.729Z,13.75
2022-09-07T06:45:11.760Z,12.10
2022-09-07T06:47:40.736Z,14.73
2022-09-07T06:50:09.617Z,14.07
2022-09-07T06:55:28.295Z,10.57
2022-09-07T06:57:56.209Z,10.55
2022-09-07T07:00:24.268Z,11.70
2022-09-07T07:02:53.022Z,10.27
2022-09-07T07:05:20.806Z,9.93
2022-09-07T07:07:48.912Z,10.93
2022-09-07T07:10:20.894Z,13.10
2022-09-07T07:12:53.305Z,8.90
2022-09-07T07:15:21.665Z,25.67
2022-09-07T07:17:56.237Z,12.82
2022-09-07T07:20:29.147Z,10.80
2022-09-07T07:22:56.958Z,7.00
2022-09-07T07:25:24.812Z,8.93
2022-09-07T07:27:53.152Z,12.45
2022-09-07T07:30:21.257Z,12.90
2022-09-07T07:32:49.193Z,11.50
2022-09-07T07:35:17.590Z,8.98
2022-09-07T07:37:45.342Z,13.87
2022-09-07T07:42:46.917Z,11.23
2022-09-07T07:48:03.499Z,12.77
2022-09-07T07:50:32.257Z,10.83
2022-09-07T07:55:49.387Z,7.72
2022-09-07T07:58:17.114Z,8.23
2022-09-07T08:00:58.624Z,9.50
2022-09-07T08:03:27.291Z,9.83
2022-09-07T08:06:08.658Z,13.38
2022-09-07T08:08:38.152Z,11.68
2022-09-07T08:11:11.450Z,14.82
2022-09-07T08:13:42.373Z,11.82
2022-09-07T08:16:13.097Z,13.87
2022-09-07T08:18:46.954Z,13.88
2022-09-07T08:21:16.122Z,11.57
2022-09-07T08:23:44.300Z,15.60
2022-09-07T08:26:12.630Z,10.85
2022-09-07T08:28:42.221Z,8.73
2022-09-07T08:31:13.229Z,9.50
2022-09-07T08:33:42.305Z,9.80
2022-09-07T08:36:15.893Z,9.82
2022-09-07T08:38:44.385Z,9.63
2022-09-07T08:41:39.791Z,17.47
2022-09-07T08:44:19.219Z,12.38
2022-09-07T08:47:07.151Z,9.32
2022-09-07T08:49:47.401Z,12.48
2022-09-07T08:52:21.809Z,11.23
2022-09-07T08:55:03.718Z,13.73
2022-09-07T08:57:35.855Z,9.70
2022-09-07T09:00:14.134Z,10.80
2022-09-07T09:02:44.400Z,10.25
2022-09-07T09:05:37.452Z,9.95
2022-09-07T09:08:11.699Z,10.97
2022-09-07T09:11:11.934Z,9.73
2022-09-07T09:14:05.928Z,14.13
2022-09-07T09:16:43.832Z,10.38
2022-09-07T09:19:30.717Z,10.43
2022-09-07T09:22:15.824Z,8.97
2022-09-07T09:25:08.607Z,12.23
2022-09-07T09:27:36.604Z,11.02
2022-09-07T09:30:13.603Z,14.63
2022-09-07T09:32:49.927Z,10.18
2022-09-07T09:35:36.388Z,13.13
2022-09-07T09:38:05.718Z,11.77
2022-09-07T09:40:35.240Z,11.57
2022-09-07T09:43:17.857Z,13.27
2022-09-07T09:48:42.152Z,12.13
2022-09-07T09:54:19.561Z,11.27
2022-09-07T09:56:49.313Z,10.63
2022-09-07T10:05:27.512Z,10.75
2022-09-07T10:07:57.111Z,10.73
2022-09-07T10:10:26.635Z,16.50
2022-09-07T10:12:56.233Z,13.32
2022-09-07T10:15:40.671Z,17.60
2022-09-07T10:18:21.482Z,13.05
2022-09-07T10:20:49.674Z,16.95
2022-09-07T10:23:23.698Z,14.60
2022-09-07T10:25:52.275Z,14.15
2022-09-07T10:28:23.954Z,12.17
2022-09-07T10:31:03.865Z,11.05
2022-09-07T10:37:11.891Z,12.65
2022-09-07T10:40:22.189Z,10.38
2022-09-07T10:43:23.829Z,10.00
2022-09-07T10:45:57.524Z,9.70
2022-09-07T10:48:32.551Z,12.88
2022-09-07T10:51:13.716Z,10.88
2022-09-07T10:56:54.568Z,12.00
2022-09-07T11:02:37.433Z,10.05
2022-09-07T11:05:36.128Z,12.07
2022-09-07T11:08:24.023Z,13.50
2022-09-07T11:11:09.571Z,12.63
2022-09-07T11:14:08.971Z,11.85
2022-09-07T11:19:36.483Z,9.43
2022-09-07T11:22:46.838Z,12.57
2022-09-07T11:25:35.590Z,12.70
2022-09-07T11:28:17.733Z,11.52
2022-09-07T11:30:59.699Z,14.48
2022-09-07T11:33:35.283Z,11.57
2022-09-07T11:36:12.500Z,12.43
2022-09-07T11:38:43.349Z,13.77
2022-09-07T11:41:27.369Z,14.95
2022-09-07T11:44:02.558Z,14.35
2022-09-07T11:46:37.916Z,14.05
2022-09-07T11:49:13.137Z,11.90
2022-09-07T11:51:57.969Z,10.73
2022-09-07T11:54:34.565Z,12.45
2022-09-07T11:57:39.948Z,12.52
2022-09-07T12:00:43.588Z,12.88
2022-09-07T12:03:22.613Z,12.98
2022-09-07T12:06:27.397Z,13.03
2022-09-07T12:09:20.124Z,16.55
2022-09-07T12:12:06.941Z,13.68
2022-09-07T12:14:48.667Z,20.35
2022-09-07T12:17:19.432Z,16.30
2022-09-07T12:20:09.234Z,14.37
2022-09-07T12:22:38.176Z,12.85
2022-09-07T12:25:17.051Z,15.63
2022-09-07T12:27:45.011Z,12.80
2022-09-07T12:30:13.032Z,13.05
2022-09-07T12:32:55.340Z,15.50
2022-09-07T12:35:30.351Z,11.30
2022-09-07T12:38:32.633Z,12.07
2022-09-07T12:41:01.812Z,11.70
2022-09-07T12:43:36.126Z,9.85
2022-09-07T12:46:04.420Z,13.20
2022-09-07T12:49:17.194Z,10.57
2022-09-07T12:52:15.113Z,10.88
2022-09-07T12:55:26.123Z,9.75
2022-09-07T12:58:09.980Z,11.38
2022-09-07T13:01:15.666Z,11.63
2022-09-07T13:04:11.022Z,8.98
2022-09-07T13:07:02.871Z,10.02
2022-09-07T13:09:38.149Z,8.00
2022-09-07T13:12:57.440Z,12.13
2022-09-07T13:15:33.022Z,8.67
2022-09-07T13:18:00.973Z,10.82
2022-09-07T13:20:39.175Z,8.35
2022-09-07T13:23:20.701Z,9.07
2022-09-07T13:25:51.611Z,8.43
2022-09-07T13:28:51.113Z,8.13
2022-09-07T13:31:56.298Z,10.30
2022-09-07T13:34:33.353Z,10.25
2022-09-07T13:37:03.552Z,6.75
2022-09-07T13:39:41.088Z,6.53
2022-09-07T13:42:22.636Z,10.63
2022-09-07T13:45:01.724Z,8.77
2022-09-07T13:48:02.108Z,7.28
2022-09-07T13:51:08.601Z,6.57
2022-09-07T13:54:14.141Z,5.88
2022-09-07T13:57:02.894Z,6.10
2022-09-07T13:59:34.503Z,10.68
2022-09-07T14:02:02.701Z,7.03
2022-09-07T14:04:36.703Z,10.82
2022-09-07T14:07:13.668Z,7.10
2022-09-07T14:09:41.642Z,6.93
2022-09-07T14:12:15.606Z,7.18
2022-09-07T14:14:43.343Z,9.07
2022-09-07T14:17:18.358Z,8.35
2022-09-07T14:19:51.399Z,9.25
2022-09-07T14:22:22.702Z,7.73
2022-09-07T14:25:04.237Z,7.80
2022-09-07T14:27:38.688Z,9.73
2022-09-07T14:30:21.643Z,8.85
2022-09-07T14:32:53.316Z,9.13
2022-09-07T14:35:24.800Z,10.37
2022-09-07T14:37:53.421Z,9.65
2022-09-07T14:40:24.509Z,9.95
2022-09-07T14:42:56.119Z,10.25
2022-09-07T14:45:24.105Z,13.95
2022-09-07T14:47:54.699Z,10.47
2022-09-07T14:50:32.212Z,10.05
2022-09-07T14:56:09.315Z,9.38
2022-09-07T14:58:37.392Z,11.85
2022-09-07T15:04:02.526Z,11.65
2022-09-07T15:09:36.362Z,10.90
2022-09-07T15:12:06.466Z,9.70
2022-09-07T15:14:34.643Z,17.27
2022-09-07T15:19:51.744Z,10.93
2022-09-07T15:22:22.311Z,13.48
2022-09-07T15:24:50.682Z,10.38
2022-09-07T15:27:28.437Z,12.23
2022-09-07T15:29:57.078Z,11.55
2022-09-07T15:32:26.107Z,12.52
2022-09-07T15:34:54.826Z,11.45
2022-09-07T15:40:29.728Z,15.70
2022-09-07T15:43:02.063Z,16.90
2022-09-07T15:45:33.207Z,17.85
2022-09-07T15:48:01.216Z,13.95
2022-09-07T15:50:29.081Z,12.90
2022-09-07T15:52:56.843Z,11.23
2022-09-07T15:55:26.262Z,11.13
2022-09-07T15:58:05.528Z,10.38
2022-09-07T16:00:39.649Z,12.10
2022-09-07T16:03:08.390Z,15.05
2022-09-07T16:05:40.986Z,16.73
2022-09-07T16:08:25.358Z,16.25
2022-09-07T16:10:54.283Z,14.95
2022-09-07T16:13:24.606Z,17.33
2022-09-07T16:15:52.455Z,13.20
2022-09-07T16:18:20.766Z,30.50
2022-09-07T16:20:52.717Z,27.45
2022-09-07T16:23:20.899Z,29.10
2022-09-07T16:25:57.373Z,14.90
2022-09-07T16:28:26.419Z,20.25
2022-09-07T16:30:54.585Z,13.30
2022-09-07T16:33:27.062Z,14.60
2022-09-07T16:36:07.260Z,11.82
2022-09-07T16:38:50.644Z,15.70
2022-09-07T16:41:23.649Z,14.88
2022-09-07T16:43:54.741Z,13.13
2022-09-07T16:46:35.220Z,13.68
2022-09-07T16:49:04.428Z,12.77
2022-09-07T16:51:33.124Z,10.85
2022-09-07T16:54:05.094Z,14.15
2022-09-07T16:56:46.334Z,55.40
2022-09-07T16:59:21.399Z,22.08
2022-09-07T17:01:53.309Z,19.77
2022-09-07T17:04:21.466Z,15.63
2022-09-07T17:06:49.660Z,14.80
2022-09-07T17:09:18.354Z,13.20
2022-09-07T17:11:47.396Z,11.18
2022-09-07T17:14:16.731Z,12.05
2022-09-07T17:16:45.142Z,15.43
2022-09-07T17:19:30.359Z,13.77
2022-09-07T17:22:00.048Z,12.93
2022-09-07T17:24:29.320Z,17.63
2022-09-07T17:27:00.754Z,14.05
2022-09-07T17:29:30.752Z,14.57
2022-09-07T17:34:47.603Z,16.67
2022-09-07T17:37:15.267Z,15.38
2022-09-07T17:39:44.395Z,14.82
2022-09-07T17:42:12.563Z,14.63
2022-09-07T17:44:40.403Z,15.23
2022-09-07T17:47:08.277Z,15.07
2022-09-07T17:49:36.490Z,14.95
2022-09-07T17:52:04.141Z,16.90
2022-09-07T17:54:32.254Z,14.90
2022-09-07T17:57:00.451Z,15.90
2022-09-07T18:02:17.019Z,22.38
2022-09-07T18:04:44.720Z,16.55
2022-09-07T18:07:12.653Z,14.98
2022-09-07T18:09:40.968Z,13.70
2022-09-07T18:12:09.055Z,14.50
2022-09-07T18:14:36.682Z,15.18
2022-09-07T18:17:05.716Z,15.82
2022-09-07T18:19:33.326Z,14.88
2022-09-07T18:22:01.454Z,17.67
2022-09-07T18:24:31.200Z,16.40
2022-09-07T18:26:58.992Z,15.35
2022-09-07T18:29:33.462Z,16.60
2022-09-07T18:32:08.759Z,17.50
2022-09-07T18:34:44.797Z,13.55
2022-09-07T18:37:15.689Z,14.47
2022-09-07T18:39:43.846Z,23.98
2022-09-07T18:42:11.875Z,37.10
2022-09-07T18:47:29.081Z,26.63
2022-09-07T18:49:58.490Z,14.50
2022-09-07T18:55:16.618Z,17.23
2022-09-07T18:57:44.899Z,14.18
2022-09-07T19:00:14.509Z,17.63
2022-09-07T19:02:42.991Z,15.30
2022-09-07T19:08:02.957Z,17.88
2022-09-07T19:10:38.409Z,16.45
2022-09-07T19:13:06.792Z,13.68
2022-09-07T19:15:37.339Z,16.27
2022-09-07T19:18:06.974Z,14.85
2022-09-07T19:20:36.567Z,12.75
2022-09-07T19:23:05.890Z,21.33
2022-09-07T19:25:33.771Z,13.45
2022-09-07T19:28:07.932Z,15.80
2022-09-07T19:30:38.255Z,14.32
2022-09-07T19:33:10.778Z,12.82
2022-09-07T19:35:39.470Z,14.25
2022-09-07T19:38:07.326Z,17.13
2022-09-07T19:40:36.004Z,17.60
2022-09-07T19:43:09.800Z,16.90
2022-09-07T19:45:40.829Z,15.05
2022-09-07T19:48:08.705Z,17.05
2022-09-07T19:50:36.487Z,12.43
2022-09-07T19:53:05.578Z,12.93
2022-09-07T19:55:33.290Z,11.63
2022-09-07T19:58:01.041Z,12.90
2022-09-07T20:00:29.007Z,10.70
2022-09-07T20:02:56.935Z,12.15
2022-09-07T20:05:24.589Z,10.50
2022-09-07T20:07:52.674Z,11.43
2022-09-07T20:10:20.730Z,17.85
2022-09-07T20:12:49.307Z,12.98
2022-09-07T20:15:17.291Z,13.18
2022-09-07T20:17:47.652Z,10.10
2022-09-07T20:20:16.591Z,12.55
2022-09-07T20:22:44.756Z,11.77
2022-09-07T20:25:13.478Z,11.20
2022-09-07T20:27:41.475Z,10.13
2022-09-07T20:30:10.015Z,14.00
2022-09-07T20:32:38.042Z,14.35
2022-09-07T20:35:06.389Z,13.02
2022-09-07T20:37:34.559Z,12.90
2022-09-07T20:40:02.677Z,11.90
2022-09-07T20:42:30.389Z,12.70
2022-09-07T20:44:58.422Z,13.30
2022-09-07T20:47:26.105Z,12.05
2022-09-07T20:49:53.829Z,12.10
2022-09-07T20:52:21.831Z,11.38
2022-09-07T20:54:49.713Z,20.03
2022-09-07T20:57:17.435Z,17.30
2022-09-07T20:59:45.567Z,12.60
2022-09-07T21:02:13.341Z,13.30
2022-09-07T21:04:42.476Z,12.85
2022-09-07T21:07:10.458Z,11.37
2022-09-07T21:09:38.335Z,11.88
2022-09-07T21:12:06.125Z,12.98
2022-09-07T21:14:34.157Z,14.85
2022-09-07T21:17:01.862Z,12.48
2022-09-07T21:19:29.554Z,13.33
2022-09-07T21:21:57.471Z,12.10
2022-09-07T21:24:25.497Z,17.75
2022-09-07T21:26:53.241Z,13.43
2022-09-07T21:29:24.166Z,18.42
2022-09-07T21:31:55.946Z,17.00
2022-09-07T21:34:24.490Z,15.85
2022-09-07T21:36:52.552Z,17.80
2022-09-07T21:39:21.831Z,15.57
2022-09-07T21:41:49.939Z,16.13
2022-09-07T21:44:17.706Z,24.77
2022-09-07T21:46:45.684Z,26.15
2022-09-07T21:49:13.830Z,25.27
2022-09-07T21:51:41.466Z,24.88
2022-09-07T21:54:09.737Z,33.00
2022-09-07T21:56:37.697Z,22.23
2022-09-07T21:59:05.456Z,22.98
2022-09-07T22:01:33.389Z,22.65
2022-09-07T22:04:07.259Z,32.10
2022-09-07T22:06:35.292Z,30.60
2022-09-07T22:09:04.274Z,39.93
2022-09-07T22:11:32.242Z,68.28
2022-09-07T22:14:03.025Z,32.35
2022-09-07T22:16:32.462Z,27.55
2022-09-07T22:19:00.480Z,34.08
2022-09-07T22:21:30.463Z,27.37
2022-09-07T22:24:02.360Z,35.85
2022-09-07T22:26:32.872Z,28.02
2022-09-07T22:29:00.981Z,19.42
2022-09-07T22:31:31.356Z,33.00
2022-09-07T22:34:00.808Z,22.60
2022-09-07T22:36:32.633Z,22.33
2022-09-07T22:39:03.047Z,27.27
2022-09-07T22:41:33.759Z,22.95
2022-09-07T22:44:02.998Z,21.35
2022-09-07T22:46:34.560Z,18.77
2022-09-07T22:49:02.914Z,27.83
2022-09-07T22:51:30.755Z,28.02
2022-09-07T22:53:59.137Z,32.20
2022-09-07T22:56:30.366Z,20.08
2022-09-07T22:59:00.895Z,20.17
2022-09-07T23:01:31.152Z,34.05
2022-09-07T23:03:59.943Z,15.52
2022-09-07T23:06:33.616Z,19.50
2022-09-07T23:09:07.087Z,25.48
2022-09-07T23:11:35.480Z,16.90
2022-09-07T23:14:06.043Z,30.60
2022-09-07T23:16:34.086Z,22.60
2022-09-07T23:19:01.981Z,16.33
2022-09-07T23:21:30.572Z,14.15
2022-09-07T23:24:00.000Z,22.33
2022-09-07T23:26:30.373Z,16.90
2022-09-07T23:29:01.437Z,37.75
2022-09-07T23:31:31.132Z,17.42
2022-09-07T23:33:59.991Z,16.98
2022-09-07T23:36:28.621Z,27.60
2022-09-07T23:38:57.400Z,19.80
2022-09-07T23:41:26.677Z,38.78
2022-09-07T23:43:55.188Z,27.48
2022-09-07T23:46:23.459Z,27.10
2022-09-07T23:48:51.643Z,27.93
2022-09-07T23:51:23.817Z,29.30
2022-09-07T23:53:53.687Z,25.88
2022-09-07T23:56:22.267Z,21.92
2022-09-07T23:58:50.012Z,17.55
